Time;durP1;ratioP1;P1;durP2;ratioP2;P2;SDS_P1;SDS_P2;PMS_P1;PMS_P2;Temp;Humidity;BMP_temperature;BMP_pressure;BME280_temperature;BME280_humidity;BME280_pressure;Samples;Min_cycle;Max_cycle;Signal;HPM_P1;HPM_P2
2024/03/18 00:00:32;;;;;;;;;;;11.60;58.90;;;;;;5052680;28;19947;-69
2024/03/18 00:02:58;;;;;;;;;;;11.60;58.70;;;;;;5053401;28;19924;-76
2024/03/18 00:05:24;;;;;;;;;;;11.60;58.80;;;;;;5053000;28;19925;-70
2024/03/18 00:07:50;;;;;;;;;;;11.60;58.60;;;;;;5054616;28;19917;-71
2024/03/18 00:10:17;;;;;;;;;;;11.60;58.60;;;;;;5052249;28;19925;-77
2024/03/18 00:12:44;;;;;;;;;;;11.60;58.50;;;;;;5054168;28;20320;-70
2024/03/18 00:15:12;;;;;;;;;;;11.60;58.10;;;;;;5052898;28;20440;-77
2024/03/18 00:17:37;;;;;;;;;;;11.50;57.90;;;;;;5054308;28;19924;-77
2024/03/18 00:20:05;;;;;;;;;;;11.60;57.70;;;;;;5052371;28;19927;-70
2024/03/18 00:22:31;;;;;;;;;;;11.60;57.40;;;;;;5052846;28;19917;-75
2024/03/18 00:24:57;;;;;;;;;;;11.50;57.20;;;;;;5054108;28;19951;-70
2024/03/18 00:27:23;;;;;;;;;;;11.60;57.20;;;;;;5054341;28;19967;-75
2024/03/18 00:29:49;;;;;;;;;;;11.60;56.90;;;;;;5054200;28;19924;-70
2024/03/18 00:32:15;;;;;;;;;;;11.50;56.90;;;;;;5052389;28;20028;-71
2024/03/18 00:34:41;;;;;;;;;;;11.50;56.70;;;;;;5052474;28;19936;-76
2024/03/18 00:37:07;;;;;;;;;;;11.50;56.40;;;;;;5052556;28;20013;-75
2024/03/18 00:39:33;;;;;;;;;;;11.50;56.30;;;;;;5052417;28;19921;-76
2024/03/18 00:41:59;;;;;;;;;;;11.50;56.20;;;;;;5051883;28;20445;-74
2024/03/18 00:44:26;;;;;;;;;;;11.50;55.80;;;;;;5053895;28;19928;-70
2024/03/18 00:46:52;;;;;;;;;;;11.60;55.40;;;;;;5052494;28;19970;-77
2024/03/18 00:49:19;;;;;;;;;;;11.50;54.50;;;;;;5035722;28;19972;-76
2024/03/18 00:51:45;;;;;;;;;;;11.60;54.50;;;;;;5051903;28;20282;-70
2024/03/18 00:54:11;;;;;;;;;;;11.60;54.20;;;;;;5053639;28;19923;-74
2024/03/18 00:56:37;;;;;;;;;;;11.60;53.90;;;;;;5052239;28;20346;-70
2024/03/18 00:59:21;;;;;;;;;;;11.60;53.10;;;;;;5035570;28;19939;-77
2024/03/18 01:01:47;;;;;;;;;;;11.60;53.50;;;;;;5035363;28;19924;-70
2024/03/18 01:04:13;;;;;;;;;;;11.60;53.30;;;;;;5052080;28;19927;-76
2024/03/18 01:06:40;;;;;;;;;;;11.60;53.50;;;;;;5052296;28;19921;-77
2024/03/18 01:09:06;;;;;;;;;;;11.70;53.00;;;;;;5035553;28;20374;-76
2024/03/18 01:11:32;;;;;;;;;;;11.60;52.60;;;;;;5051497;28;19920;-70
2024/03/18 01:13:58;;;;;;;;;;;11.70;52.30;;;;;;5052088;28;20030;-76
2024/03/18 01:16:27;;;;;;;;;;;11.60;52.10;;;;;;5052049;28;19923;-70
2024/03/18 01:18:56;;;;;;;;;;;11.60;52.10;;;;;;5052100;28;19921;-70
2024/03/18 01:21:22;;;;;;;;;;;11.60;52.00;;;;;;5052782;28;20293;-70
2024/03/18 01:23:48;;;;;;;;;;;11.60;51.80;;;;;;5052896;28;19916;-70
2024/03/18 01:26:14;;;;;;;;;;;11.50;51.80;;;;;;5035152;28;19924;-77
2024/03/18 01:28:41;;;;;;;;;;;11.50;51.60;;;;;;5035036;28;20028;-77
2024/03/18 01:31:07;;;;;;;;;;;11.50;51.70;;;;;;5052216;28;20028;-70
2024/03/18 01:33:33;;;;;;;;;;;11.50;51.90;;;;;;5051442;28;20011;-70
2024/03/18 01:36:00;;;;;;;;;;;11.50;51.20;;;;;;5051692;28;19924;-69
2024/03/18 01:38:26;;;;;;;;;;;11.50;51.70;;;;;;5051356;28;20428;-70
2024/03/18 01:40:53;;;;;;;;;;;11.50;51.70;;;;;;5050638;28;19928;-70
2024/03/18 01:43:19;;;;;;;;;;;11.50;51.70;;;;;;5050954;28;20404;-70
2024/03/18 01:45:46;;;;;;;;;;;11.50;51.90;;;;;;5051719;28;19924;-70
2024/03/18 01:48:12;;;;;;;;;;;11.40;51.70;;;;;;5034839;28;20007;-70
2024/03/18 01:50:41;;;;;;;;;;;11.50;51.60;;;;;;5050985;28;19924;-77
2024/03/18 01:53:26;;;;;;;;;;;11.40;51.50;;;;;;5035277;28;19921;-70
2024/03/18 01:55:52;;;;;;;;;;;11.40;51.80;;;;;;5052893;28;19929;-76
2024/03/18 01:58:19;;;;;;;;;;;11.40;52.00;;;;;;5052534;28;20278;-72
2024/03/18 02:00:46;;;;;;;;;;;11.40;52.00;;;;;;5050744;28;19935;-76
2024/03/18 02:03:11;;;;;;;;;;;11.40;51.90;;;;;;5051106;28;19921;-69
2024/03/18 02:05:38;;;;;;;;;;;11.40;51.70;;;;;;5058003;28;19925;-70
2024/03/18 02:08:05;;;;;;;;;;;11.40;51.60;;;;;;5054317;28;19920;-70
2024/03/18 02:10:31;;;;;;;;;;;11.40;51.50;;;;;;5071473;28;20405;-70
2024/03/18 02:13:15;;;;;;;;;;;11.40;51.00;;;;;;5053736;28;19966;-73
2024/03/18 02:15:41;;;;;;;;;;;11.40;51.40;;;;;;5054210;28;20392;-76
2024/03/18 02:18:08;;;;;;;;;;;11.30;51.50;;;;;;5072023;28;19917;-70
2024/03/18 02:20:34;;;;;;;;;;;11.30;51.60;;;;;;5053304;28;20092;-70
2024/03/18 02:23:00;;;;;;;;;;;11.30;51.70;;;;;;5054147;28;20019;-74
2024/03/18 02:25:26;;;;;;;;;;;11.30;51.60;;;;;;5072021;28;20448;-74
2024/03/18 02:27:52;;;;;;;;;;;11.30;51.70;;;;;;5072102;28;19942;-76
2024/03/18 02:30:18;;;;;;;;;;;11.30;51.70;;;;;;5036726;28;19921;-70
2024/03/18 02:32:44;;;;;;;;;;;11.30;51.70;;;;;;5071799;28;19916;-76
2024/03/18 02:35:13;;;;;;;;;;;11.30;51.90;;;;;;5053582;28;19925;-77
2024/03/18 02:37:39;;;;;;;;;;;11.20;51.80;;;;;;5054043;28;19966;-77
2024/03/18 02:40:08;;;;;;;;;;;11.20;51.90;;;;;;5053053;28;20389;-70
2024/03/18 02:42:47;;;;;;;;;;;11.10;51.90;;;;;;5053920;28;19920;-76
2024/03/18 02:45:13;;;;;;;;;;;11.10;51.90;;;;;;5071872;28;19925;-70
2024/03/18 02:47:40;;;;;;;;;;;11.10;52.20;;;;;;5054100;28;19924;-76
2024/03/18 02:50:08;;;;;;;;;;;11.10;52.10;;;;;;5053206;28;20155;-77
2024/03/18 02:52:36;;;;;;;;;;;11.10;52.00;;;;;;5071721;28;20019;-76
2024/03/18 02:55:02;;;;;;;;;;;11.00;52.10;;;;;;5036939;28;19931;-70
2024/03/18 02:57:28;;;;;;;;;;;11.00;52.10;;;;;;5058106;28;19947;-75
2024/03/18 02:59:54;;;;;;;;;;;11.00;52.30;;;;;;5057952;28;20389;-77
2024/03/18 03:02:21;;;;;;;;;;;11.00;52.10;;;;;;5057049;28;19927;-77
2024/03/18 03:04:46;;;;;;;;;;;10.90;52.30;;;;;;5075753;28;19925;-77
2024/03/18 03:07:12;;;;;;;;;;;11.00;52.40;;;;;;5058023;28;19966;-77
2024/03/18 03:09:38;;;;;;;;;;;10.90;52.50;;;;;;5075522;28;19931;-70
2024/03/18 03:12:05;;;;;;;;;;;10.90;52.30;;;;;;5074908;28;19924;-77
2024/03/18 03:14:31;;;;;;;;;;;10.90;52.00;;;;;;5057319;28;19924;-69
2024/03/18 03:16:56;;;;;;;;;;;10.90;52.40;;;;;;5057346;28;19923;-75
2024/03/18 03:19:23;;;;;;;;;;;10.90;52.60;;;;;;5075068;28;19928;-76
2024/03/18 03:21:49;;;;;;;;;;;10.90;52.40;;;;;;5074544;28;19966;-70
2024/03/18 03:24:15;;;;;;;;;;;10.90;52.30;;;;;;5075002;28;20015;-69
2024/03/18 03:26:42;;;;;;;;;;;10.90;52.40;;;;;;5057741;28;19917;-77
2024/03/18 03:29:08;;;;;;;;;;;10.90;52.60;;;;;;5075077;28;19916;-69
2024/03/18 03:31:34;;;;;;;;;;;10.90;52.60;;;;;;5074726;28;20397;-69
2024/03/18 03:34:00;;;;;;;;;;;10.90;52.90;;;;;;5074902;28;20007;-70
2024/03/18 03:36:26;;;;;;;;;;;10.90;52.80;;;;;;5057061;28;19973;-77
2024/03/18 03:38:51;;;;;;;;;;;10.90;52.70;;;;;;5074741;28;19944;-77
2024/03/18 03:41:17;;;;;;;;;;;10.90;52.70;;;;;;5039435;28;19924;-77
2024/03/18 03:43:44;;;;;;;;;;;11.00;52.70;;;;;;5040166;28;19920;-77
2024/03/18 03:46:10;;;;;;;;;;;11.00;53.40;;;;;;5040439;28;19920;-77
2024/03/18 03:48:36;;;;;;;;;;;10.90;53.30;;;;;;5056741;28;19924;-77
2024/03/18 03:51:02;;;;;;;;;;;10.90;53.30;;;;;;5039674;28;20309;-70
2024/03/18 03:53:28;;;;;;;;;;;10.90;53.10;;;;;;5074660;28;19927;-76
2024/03/18 03:58:46;;;;;;;;;;;10.90;52.70;;;;;;5059436;28;19939;-70
2024/03/18 04:01:12;;;;;;;;;;;10.90;52.60;;;;;;5056716;28;19924;-77
2024/03/18 04:03:38;;;;;;;;;;;10.90;52.90;;;;;;5074785;28;19916;-77
2024/03/18 04:06:04;;;;;;;;;;;10.90;52.80;;;;;;5056062;28;20296;-70
2024/03/18 04:08:30;;;;;;;;;;;10.90;52.80;;;;;;5039902;28;19924;-70
2024/03/18 04:10:56;;;;;;;;;;;10.80;52.90;;;;;;5073644;28;19928;-77
2024/03/18 04:13:21;;;;;;;;;;;10.90;53.10;;;;;;5039353;28;20335;-77
2024/03/18 04:15:49;;;;;;;;;;;10.80;53.20;;;;;;5056317;28;19975;-69
2024/03/18 04:18:16;;;;;;;;;;;10.80;53.40;;;;;;5056449;28;19917;-70
2024/03/18 04:20:43;;;;;;;;;;;10.70;53.40;;;;;;5073580;28;19928;-70
2024/03/18 04:23:09;;;;;;;;;;;10.70;53.50;;;;;;5055902;28;19921;-70
2024/03/18 04:25:35;;;;;;;;;;;10.60;53.70;;;;;;5074132;28;20212;-70
2024/03/18 04:30:46;;;;;;;;;;;10.60;54.50;;;;;;5058420;28;19997;-77
2024/03/18 04:33:12;;;;;;;;;;;10.50;54.90;;;;;;5039243;28;19920;-77
2024/03/18 04:35:37;;;;;;;;;;;10.50;54.90;;;;;;5073938;28;19964;-76
2024/03/18 04:38:03;;;;;;;;;;;10.50;55.10;;;;;;5055973;28;20457;-70
2024/03/18 04:40:29;;;;;;;;;;;10.40;54.80;;;;;;5073333;28;19929;-70
2024/03/18 04:42:56;;;;;;;;;;;10.40;54.80;;;;;;5055808;28;20343;-76
2024/03/18 04:45:22;;;;;;;;;;;10.40;54.60;;;;;;5073583;28;19924;-70
2024/03/18 04:48:08;;;;;;;;;;;10.40;55.30;;;;;;5055633;28;19967;-70
2024/03/18 04:50:34;;;;;;;;;;;10.40;54.20;;;;;;5054597;28;20378;-77
2024/03/18 04:52:59;;;;;;;;;;;10.50;54.30;;;;;;5055605;28;19923;-70
2024/03/18 04:55:26;;;;;;;;;;;10.40;54.40;;;;;;5055155;28;20419;-77
2024/03/18 04:57:55;;;;;;;;;;;10.40;54.30;;;;;;5056017;28;19966;-71
2024/03/18 05:00:22;;;;;;;;;;;10.40;54.00;;;;;;5054691;28;19924;-76
2024/03/18 05:02:48;;;;;;;;;;;10.40;54.20;;;;;;5038760;28;19966;-77
2024/03/18 05:05:14;;;;;;;;;;;10.40;54.30;;;;;;5073086;28;19924;-77
2024/03/18 05:07:40;;;;;;;;;;;10.40;54.10;;;;;;5055419;28;19916;-70
2024/03/18 05:10:08;;;;;;;;;;;10.40;53.90;;;;;;5054716;28;19933;-70
2024/03/18 05:12:34;;;;;;;;;;;10.50;53.90;;;;;;5055218;28;20353;-76
2024/03/18 05:15:00;;;;;;;;;;;10.50;53.90;;;;;;5038325;28;19970;-70
2024/03/18 05:17:26;;;;;;;;;;;10.50;53.70;;;;;;5055094;28;19927;-75
2024/03/18 05:19:52;;;;;;;;;;;10.60;53.90;;;;;;5054499;28;19961;-70
2024/03/18 05:22:19;;;;;;;;;;;10.60;53.90;;;;;;5054323;28;19921;-73
2024/03/18 05:24:45;;;;;;;;;;;10.60;53.70;;;;;;5054855;28;20293;-70
2024/03/18 05:27:30;;;;;;;;;;;10.60;54.00;;;;;;5072847;28;20345;-76
2024/03/18 05:29:55;;;;;;;;;;;10.70;53.80;;;;;;5072641;28;19951;-76
2024/03/18 05:32:21;;;;;;;;;;;10.70;53.70;;;;;;5072115;28;19952;-76
2024/03/18 05:34:48;;;;;;;;;;;10.80;53.70;;;;;;5072685;28;19932;-76
2024/03/18 05:37:14;;;;;;;;;;;10.80;53.70;;;;;;5072492;28;20281;-74
2024/03/18 05:39:40;;;;;;;;;;;10.80;53.50;;;;;;5054495;28;19924;-70
2024/03/18 05:42:06;;;;;;;;;;;10.90;53.50;;;;;;5053991;28;19932;-70
2024/03/18 05:44:33;;;;;;;;;;;11.00;53.50;;;;;;5072278;28;19924;-69
2024/03/18 05:46:59;;;;;;;;;;;11.10;52.90;;;;;;5054662;28;19916;-75
2024/03/18 05:49:26;;;;;;;;;;;11.10;53.20;;;;;;5072573;28;19978;-77
2024/03/18 05:51:52;;;;;;;;;;;11.10;53.00;;;;;;5054022;28;20292;-76
2024/03/18 05:54:18;;;;;;;;;;;11.20;52.90;;;;;;5037392;28;19924;-70
2024/03/18 05:56:45;;;;;;;;;;;11.20;52.70;;;;;;5054269;28;19952;-70
2024/03/18 05:59:11;;;;;;;;;;;11.20;52.60;;;;;;5054086;28;19920;-70
2024/03/18 06:01:55;;;;;;;;;;;11.20;52.60;;;;;;5053664;28;19978;-76
2024/03/18 06:04:22;;;;;;;;;;;11.30;52.30;;;;;;5054051;28;20205;-70
2024/03/18 06:06:47;;;;;;;;;;;11.40;52.20;;;;;;5050765;28;19924;-77
2024/03/18 06:09:13;;;;;;;;;;;11.40;51.40;;;;;;5050767;28;20011;-70
2024/03/18 06:11:39;;;;;;;;;;;11.50;51.60;;;;;;5050020;28;19924;-77
2024/03/18 06:16:50;;;;;;;;;;;11.50;51.20;;;;;;5051880;28;19923;-70
2024/03/18 06:19:17;;;;;;;;;;;11.60;51.20;;;;;;5050506;28;20401;-76
2024/03/18 06:21:45;;;;;;;;;;;11.70;51.40;;;;;;5050349;28;19928;-71
2024/03/18 06:24:22;;;;;;;;;;;11.70;50.60;;;;;;5050386;28;20027;-71
2024/03/18 06:26:49;;;;;;;;;;;11.80;50.80;;;;;;5051772;28;19921;-76
2024/03/18 06:29:15;;;;;;;;;;;11.80;50.10;;;;;;5050485;28;19927;-69
2024/03/18 06:31:40;;;;;;;;;;;11.90;51.30;;;;;;5049959;28;20377;-70
2024/03/18 06:34:07;;;;;;;;;;;12.00;50.30;;;;;;5051610;28;20023;-70
2024/03/18 06:36:34;;;;;;;;;;;12.00;50.40;;;;;;5051444;28;20004;-70
2024/03/18 06:39:00;;;;;;;;;;;12.00;49.90;;;;;;5033641;28;20428;-70
2024/03/18 06:41:27;;;;;;;;;;;12.10;50.70;;;;;;5049723;28;19929;-70
2024/03/18 06:43:53;;;;;;;;;;;12.10;50.60;;;;;;5050240;28;19917;-76
2024/03/18 06:46:19;;;;;;;;;;;12.20;50.40;;;;;;5051321;28;20043;-76
2024/03/18 06:48:45;;;;;;;;;;;12.20;50.40;;;;;;5051555;28;19921;-70
2024/03/18 06:51:29;;;;;;;;;;;12.20;49.90;;;;;;5049662;28;20016;-70
2024/03/18 06:53:55;;;;;;;;;;;12.20;50.10;;;;;;5050289;28;20022;-70
2024/03/18 06:56:21;;;;;;;;;;;12.30;50.00;;;;;;5051287;28;20452;-76
2024/03/18 06:58:47;;;;;;;;;;;12.40;49.60;;;;;;5033652;28;19923;-77
2024/03/18 07:01:13;;;;;;;;;;;12.40;49.60;;;;;;5049426;28;19925;-73
2024/03/18 07:03:40;;;;;;;;;;;12.50;49.40;;;;;;5050092;28;19939;-70
2024/03/18 07:06:06;;;;;;;;;;;12.50;49.30;;;;;;5060881;28;20011;-77
2024/03/18 07:08:32;;;;;;;;;;;12.60;48.50;;;;;;5071307;28;19917;-70
2024/03/18 07:10:58;;;;;;;;;;;12.60;49.20;;;;;;5052706;28;19934;-70
2024/03/18 07:13:25;;;;;;;;;;;12.60;48.90;;;;;;5053246;28;19940;-70
2024/03/18 07:15:51;;;;;;;;;;;12.70;48.50;;;;;;5053626;28;19920;-70
2024/03/18 07:18:18;;;;;;;;;;;12.80;48.40;;;;;;5071317;28;20015;-70
2024/03/18 07:20:43;;;;;;;;;;;12.90;48.10;;;;;;5070805;28;19932;-76
2024/03/18 07:23:11;;;;;;;;;;;13.00;48.10;;;;;;5036484;28;19917;-70
2024/03/18 07:25:37;;;;;;;;;;;13.10;48.10;;;;;;5071311;28;19924;-70
2024/03/18 07:28:03;;;;;;;;;;;13.20;46.50;;;;;;5053392;28;20474;-75
2024/03/18 07:30:29;;;;;;;;;;;13.20;45.60;;;;;;5052332;28;19931;-76
2024/03/18 07:32:55;;;;;;;;;;;13.40;45.70;;;;;;5071260;28;20362;-70
2024/03/18 07:35:21;;;;;;;;;;;13.40;45.90;;;;;;5070706;28;19917;-71
2024/03/18 07:37:47;;;;;;;;;;;13.50;45.10;;;;;;5071159;28;19931;-70
2024/03/18 07:40:13;;;;;;;;;;;13.70;45.30;;;;;;5052480;28;20429;-75
2024/03/18 07:45:23;;;;;;;;;;;13.90;43.70;;;;;;5059508;28;20054;-76
2024/03/18 07:47:49;;;;;;;;;;;14.10;44.70;;;;;;5056736;28;20432;-74
2024/03/18 07:50:15;;;;;;;;;;;14.30;44.10;;;;;;5074030;28;20047;-70
2024/03/18 07:52:41;;;;;;;;;;;14.50;43.10;;;;;;5056632;28;19917;-72
2024/03/18 07:55:07;;;;;;;;;;;14.90;43.40;;;;;;5074373;28;20335;-76
2024/03/18 07:57:33;;;;;;;;;;;15.30;42.20;;;;;;5074737;28;19931;-70
2024/03/18 07:59:59;;;;;;;;;;;15.70;40.70;;;;;;5056263;28;20015;-77
2024/03/18 08:02:25;;;;;;;;;;;16.00;39.90;;;;;;5039153;28;19999;-70
2024/03/18 08:04:52;;;;;;;;;;;16.50;40.00;;;;;;5074583;28;20281;-76
2024/03/18 08:07:18;;;;;;;;;;;16.90;38.30;;;;;;5056270;28;19922;-77
2024/03/18 08:09:45;;;;;;;;;;;17.50;38.30;;;;;;5039719;28;19931;-70
2024/03/18 08:12:11;;;;;;;;;;;18.00;36.60;;;;;;5073843;28;19974;-70
2024/03/18 08:14:42;;;;;;;;;;;18.50;36.20;;;;;;5073983;28;19924;-76
2024/03/18 08:17:09;;;;;;;;;;;19.00;34.40;;;;;;5057056;28;19970;-76
2024/03/18 08:19:35;;;;;;;;;;;19.50;33.10;;;;;;5056251;28;20032;-76
2024/03/18 08:22:02;;;;;;;;;;;19.90;32.90;;;;;;5055736;28;20007;-70
2024/03/18 08:24:28;;;;;;;;;;;20.40;32.00;;;;;;5074007;28;20330;-76
2024/03/18 08:26:54;;;;;;;;;;;21.00;31.70;;;;;;5073951;28;20019;-74
2024/03/18 08:29:21;;;;;;;;;;;21.50;30.80;;;;;;5074074;28;19924;-70
2024/03/18 08:31:47;;;;;;;;;;;21.80;29.30;;;;;;5073501;28;19966;-77
2024/03/18 08:34:13;;;;;;;;;;;22.30;29.00;;;;;;5039061;28;19916;-76
2024/03/18 08:36:38;;;;;;;;;;;22.60;28.30;;;;;;5056005;28;20373;-76
2024/03/18 08:39:04;;;;;;;;;;;23.10;27.90;;;;;;5073837;28;20023;-77
2024/03/18 08:41:30;;;;;;;;;;;23.30;26.40;;;;;;5047341;28;20415;-70
2024/03/18 08:43:56;;;;;;;;;;;23.30;26.60;;;;;;5073544;28;20023;-70
2024/03/18 08:46:22;;;;;;;;;;;23.30;25.90;;;;;;5072054;28;20400;-75
2024/03/18 08:48:48;;;;;;;;;;;23.10;25.90;;;;;;5073681;28;20019;-70
2024/03/18 08:51:14;;;;;;;;;;;22.80;25.80;;;;;;5073230;28;19924;-70
2024/03/18 08:53:40;;;;;;;;;;;22.60;26.20;;;;;;5072284;28;19930;-76
2024/03/18 08:56:06;;;;;;;;;;;22.40;26.10;;;;;;5073666;28;19970;-70
2024/03/18 08:58:32;;;;;;;;;;;22.30;26.50;;;;;;5072299;28;20023;-77
2024/03/18 09:00:58;;;;;;;;;;;22.10;27.00;;;;;;5071379;28;19999;-70
2024/03/18 09:03:24;;;;;;;;;;;22.10;26.60;;;;;;5071997;28;20295;-77
2024/03/18 09:06:08;;;;;;;;;;;22.10;26.80;;;;;;5073054;28;19924;-70
2024/03/18 09:08:37;;;;;;;;;;;22.20;25.80;;;;;;5071784;28;19921;-70
2024/03/18 09:11:03;;;;;;;;;;;22.60;25.80;;;;;;5071396;28;19924;-77
2024/03/18 09:13:29;;;;;;;;;;;22.80;25.90;;;;;;5071904;28;19932;-77
2024/03/18 09:15:55;;;;;;;;;;;23.10;25.90;;;;;;5071973;28;19920;-77
2024/03/18 09:18:23;;;;;;;;;;;23.70;25.50;;;;;;5071250;28;20361;-76
2024/03/18 09:20:51;;;;;;;;;;;24.50;24.20;;;;;;5071330;28;20004;-77
2024/03/18 09:23:17;;;;;;;;;;;24.90;23.50;;;;;;5072676;28;19959;-70
2024/03/18 09:25:43;;;;;;;;;;;25.40;22.80;;;;;;5071575;28;19929;-76
2024/03/18 09:28:09;;;;;;;;;;;26.10;21.90;;;;;;5072864;28;19923;-70
2024/03/18 09:30:35;;;;;;;;;;;26.30;22.00;;;;;;5054053;28;19928;-77
2024/03/18 09:33:01;;;;;;;;;;;26.40;22.10;;;;;;5072797;28;19975;-76
2024/03/18 09:35:27;;;;;;;;;;;26.90;20.90;;;;;;5054456;28;19924;-70
2024/03/18 09:37:53;;;;;;;;;;;27.40;20.80;;;;;;5072758;28;19960;-75
2024/03/18 09:40:19;;;;;;;;;;;27.80;20.00;;;;;;5072035;28;20401;-71
2024/03/18 09:42:45;;;;;;;;;;;28.00;20.20;;;;;;5071120;28;19917;-70
2024/03/18 09:45:15;;;;;;;;;;;28.30;19.90;;;;;;5072648;28;19925;-74
2024/03/18 09:47:42;;;;;;;;;;;28.50;18.80;;;;;;5071382;28;20382;-77
2024/03/18 09:50:10;;;;;;;;;;;28.70;18.30;;;;;;5070604;28;20324;-76
2024/03/18 09:52:41;;;;;;;;;;;28.90;18.00;;;;;;5054625;28;20334;-71
2024/03/18 09:55:38;;;;;;;;;;;28.80;18.00;;;;;;5070906;28;19928;-71
2024/03/18 09:58:29;;;;;;;;;;;28.60;19.10;;;;;;5072347;28;19923;-77
2024/03/18 10:00:55;;;;;;;;;;;28.60;18.80;;;;;;5071951;28;19929;-77
2024/03/18 10:03:21;;;;;;;;;;;29.20;18.60;;;;;;5072038;28;20012;-71
2024/03/18 10:05:48;;;;;;;;;;;29.70;17.10;;;;;;5070243;28;19924;-71
2024/03/18 10:08:14;;;;;;;;;;;30.30;17.10;;;;;;5070711;28;19931;-76
2024/03/18 10:10:41;;;;;;;;;;;30.90;16.10;;;;;;5071643;28;19925;-77
2024/03/18 10:13:08;;;;;;;;;;;31.50;16.10;;;;;;5070843;28;19943;-76
2024/03/18 10:15:34;;;;;;;;;;;31.60;15.50;;;;;;5070784;28;20066;-76
2024/03/18 10:18:00;;;;;;;;;;;31.50;16.00;;;;;;5071950;28;19928;-76
2024/03/18 10:20:26;;;;;;;;;;;31.30;16.20;;;;;;5071375;28;19962;-77
2024/03/18 10:22:52;;;;;;;;;;;31.60;15.50;;;;;;5071771;28;20307;-71
2024/03/18 10:25:26;;;;;;;;;;;31.80;16.10;;;;;;5070464;28;20276;-71
2024/03/18 10:27:56;;;;;;;;;;;32.30;14.70;;;;;;5070946;28;20007;-71
2024/03/18 10:30:22;;;;;;;;;;;32.60;14.00;;;;;;5069914;28;20454;-71
2024/03/18 10:32:49;;;;;;;;;;;33.00;14.70;;;;;;5071926;28;19917;-75
2024/03/18 10:35:27;;;;;;;;;;;33.30;14.20;;;;;;5071750;28;20031;-76
2024/03/18 10:37:54;;;;;;;;;;;33.70;13.40;;;;;;5071846;28;19920;-71
2024/03/18 10:40:38;;;;;;;;;;;33.70;13.90;;;;;;5053103;28;19943;-71
2024/03/18 10:43:08;;;;;;;;;;;33.50;14.10;;;;;;5070170;28;19916;-76
2024/03/18 10:45:36;;;;;;;;;;;33.70;13.70;;;;;;5053698;28;19928;-76
2024/03/18 10:48:04;;;;;;;;;;;33.70;13.20;;;;;;5053694;28;19921;-76
2024/03/18 10:50:31;;;;;;;;;;;33.50;13.80;;;;;;5069695;28;19924;-71
2024/03/18 10:52:57;;;;;;;;;;;33.40;14.00;;;;;;5071666;28;19924;-76
2024/03/18 10:55:23;;;;;;;;;;;33.40;13.50;;;;;;5069885;28;20297;-76
2024/03/18 10:57:51;;;;;;;;;;;33.80;13.20;;;;;;5071691;28;20274;-76
2024/03/18 11:00:21;;;;;;;;;;;34.00;13.60;;;;;;5069357;28;19920;-76
2024/03/18 11:03:15;;;;;;;;;;;33.90;13.20;;;;;;5053777;28;19916;-71
2024/03/18 11:05:52;;;;;;;;;;;33.30;13.40;;;;;;5070108;28;20030;-71
2024/03/18 11:08:19;;;;;;;;;;;33.10;13.60;;;;;;5071339;28;19928;-71
2024/03/18 11:10:47;;;;;;;;;;;33.10;12.80;;;;;;5069434;28;20313;-75
2024/03/18 11:13:14;;;;;;;;;;;33.80;13.10;;;;;;5069821;28;19916;-71
2024/03/18 11:15:51;;;;;;;;;;;33.80;13.00;;;;;;5053490;28;19930;-71
2024/03/18 11:18:38;;;;;;;;;;;33.60;13.30;;;;;;5075290;28;19924;-71
2024/03/18 11:21:05;;;;;;;;;;;33.40;13.10;;;;;;5073383;28;19933;-72
2024/03/18 11:23:32;;;;;;;;;;;33.30;13.10;;;;;;5073708;28;19970;-71
2024/03/18 11:26:05;;;;;;;;;;;33.60;13.60;;;;;;5075218;28;20424;-76
2024/03/18 11:28:59;;;;;;;;;;;34.00;13.60;;;;;;5075194;28;20298;-76
2024/03/18 11:31:25;;;;;;;;;;;34.90;12.90;;;;;;5073156;28;19934;-76
2024/03/18 11:33:51;;;;;;;;;;;35.60;12.70;;;;;;5073784;28;19916;-72
2024/03/18 11:36:20;;;;;;;;;;;35.60;12.30;;;;;;5075159;28;19966;-72
2024/03/18 11:38:46;;;;;;;;;;;35.60;12.10;;;;;;5073776;28;20011;-76
2024/03/18 11:41:13;;;;;;;;;;;35.00;13.10;;;;;;5074219;28;19931;-71
2024/03/18 11:43:39;;;;;;;;;;;34.60;13.00;;;;;;5073340;28;19943;-73
2024/03/18 11:46:06;;;;;;;;;;;34.70;13.00;;;;;;5075040;28;20332;-72
2024/03/18 11:48:32;;;;;;;;;;;35.00;13.10;;;;;;5073335;28;19921;-76
2024/03/18 11:50:58;;;;;;;;;;;34.80;12.90;;;;;;5072819;28;19931;-71
2024/03/18 11:53:24;;;;;;;;;;;34.30;13.00;;;;;;5074612;28;20309;-71
2024/03/18 11:55:53;;;;;;;;;;;34.40;13.20;;;;;;5073408;28;20297;-76
2024/03/18 11:58:20;;;;;;;;;;;34.70;12.70;;;;;;5073404;28;19924;-71
2024/03/18 12:01:05;;;;;;;;;;;34.60;12.40;;;;;;5072529;28;19928;-71
2024/03/18 12:03:30;;;;;;;;;;;34.50;13.20;;;;;;5074334;28;19921;-76
2024/03/18 12:05:56;;;;;;;;;;;34.10;13.50;;;;;;5072787;28;20362;-75
2024/03/18 12:08:23;;;;;;;;;;;33.60;13.90;;;;;;5074387;28;20555;-71
2024/03/18 12:13:36;;;;;;;;;;;32.90;14.20;;;;;;5073278;28;19966;-71
2024/03/18 12:16:02;;;;;;;;;;;32.30;15.30;;;;;;5073228;28;20381;-71
2024/03/18 12:18:30;;;;;;;;;;;31.90;15.40;;;;;;5072982;28;19928;-76
2024/03/18 12:20:56;;;;;;;;;;;31.50;15.40;;;;;;5072437;28;19924;-76
2024/03/18 12:29:00;;;;;;;;;;;31.50;16.30;;;;;;5072617;28;19923;-76
2024/03/18 12:31:29;;;;;;;;;;;31.80;15.40;;;;;;5073097;28;19921;-71
2024/03/18 12:33:58;;;;;;;;;;;31.70;15.70;;;;;;5055883;28;19926;-71
2024/03/18 12:36:24;;;;;;;;;;;32.00;15.90;;;;;;5073536;28;19925;-76
2024/03/18 12:38:51;;;;;;;;;;;32.10;15.40;;;;;;5072475;28;19952;-71
2024/03/18 12:41:18;;;;;;;;;;;32.10;15.30;;;;;;5071893;28;19963;-70
2024/03/18 12:43:45;;;;;;;;;;;32.10;15.80;;;;;;5072408;28;19922;-70
2024/03/18 12:46:11;;;;;;;;;;;32.10;15.50;;;;;;5074021;28;19917;-76
2024/03/18 12:48:37;;;;;;;;;;;31.60;15.70;;;;;;5073478;28;19950;-71
2024/03/18 12:51:05;;;;;;;;;;;31.00;16.00;;;;;;5071837;28;20266;-76
2024/03/18 12:53:31;;;;;;;;;;;30.50;16.60;;;;;;5055479;28;20007;-70
2024/03/18 12:55:57;;;;;;;;;;;30.20;17.30;;;;;;5072026;28;19927;-76
2024/03/18 12:58:22;;;;;;;;;;;30.90;17.00;;;;;;5073239;28;19924;-71
2024/03/18 13:00:48;;;;;;;;;;;32.80;15.80;;;;;;5072995;28;20012;-76
2024/03/18 13:03:15;;;;;;;;;;;33.70;14.70;;;;;;5055440;28;19923;-75
2024/03/18 13:05:45;;;;;;;;;;;32.80;14.30;;;;;;5071682;28;19920;-71
2024/03/18 13:08:13;;;;;;;;;;;31.60;15.60;;;;;;5071824;28;19921;-70
2024/03/18 13:10:41;;;;;;;;;;;30.70;16.00;;;;;;5072559;28;19924;-76
2024/03/18 13:13:12;;;;;;;;;;;30.20;16.90;;;;;;5071686;28;19928;-76
2024/03/18 13:15:42;;;;;;;;;;;29.60;17.50;;;;;;5073343;28;19935;-71
2024/03/18 13:18:26;;;;;;;;;;;29.40;18.00;;;;;;5071999;28;20023;-76
2024/03/18 13:20:53;;;;;;;;;;;28.70;18.00;;;;;;5054336;28;19971;-76
2024/03/18 13:23:20;;;;;;;;;;;28.10;18.70;;;;;;5072896;28;19998;-76
2024/03/18 13:25:51;;;;;;;;;;;27.70;19.00;;;;;;5073100;28;20273;-70
2024/03/18 13:31:02;;;;;;;;;;;27.00;19.90;;;;;;5071460;28;20066;-76
2024/03/18 13:33:28;;;;;;;;;;;26.70;20.80;;;;;;5054904;28;19917;-76
2024/03/18 13:35:54;;;;;;;;;;;26.60;20.90;;;;;;5072895;28;19932;-70
2024/03/18 13:38:20;;;;;;;;;;;26.40;21.20;;;;;;5071305;28;20015;-70
2024/03/18 13:40:46;;;;;;;;;;;26.20;21.30;;;;;;5071724;28;20023;-71
2024/03/18 13:43:32;;;;;;;;;;;25.90;21.70;;;;;;5071148;28;19923;-77
2024/03/18 13:45:58;;;;;;;;;;;25.60;21.90;;;;;;5071397;28;19920;-70
2024/03/18 13:48:24;;;;;;;;;;;25.30;22.20;;;;;;5072439;28;19942;-76
2024/03/18 13:50:50;;;;;;;;;;;25.30;22.60;;;;;;5071951;28;19924;-71
2024/03/18 13:53:17;;;;;;;;;;;25.20;23.00;;;;;;5071088;28;19927;-70
2024/03/18 13:55:43;;;;;;;;;;;24.90;23.60;;;;;;5072582;28;19924;-70
2024/03/18 13:58:09;;;;;;;;;;;24.80;23.60;;;;;;5072290;28;19916;-76
2024/03/18 14:00:36;;;;;;;;;;;24.60;23.60;;;;;;5053812;28;19930;-70
2024/03/18 14:03:05;;;;;;;;;;;24.40;23.60;;;;;;5070869;28;19945;-71
2024/03/18 14:05:31;;;;;;;;;;;24.10;24.00;;;;;;5070569;28;19946;-69
2024/03/18 14:07:57;;;;;;;;;;;23.90;24.80;;;;;;5072169;28;19930;-76
2024/03/18 14:10:23;;;;;;;;;;;23.70;25.40;;;;;;5071529;28;20057;-70
2024/03/18 14:12:49;;;;;;;;;;;23.60;24.80;;;;;;5070856;28;19916;-70
2024/03/18 14:15:15;;;;;;;;;;;23.60;25.40;;;;;;5053954;28;20294;-71
2024/03/18 14:17:43;;;;;;;;;;;23.50;25.60;;;;;;5072020;28;19966;-70
2024/03/18 14:20:10;;;;;;;;;;;23.30;25.40;;;;;;5071263;28;20019;-70
2024/03/18 14:22:37;;;;;;;;;;;23.20;25.40;;;;;;5053786;28;19920;-76
2024/03/18 14:25:08;;;;;;;;;;;23.00;25.70;;;;;;5071820;28;20015;-76
2024/03/18 14:27:35;;;;;;;;;;;22.90;25.80;;;;;;5070891;28;19928;-76
2024/03/18 14:30:03;;;;;;;;;;;22.80;25.70;;;;;;5072034;28;20370;-76
2024/03/18 14:32:28;;;;;;;;;;;22.70;26.70;;;;;;5070080;28;20297;-76
2024/03/18 14:34:54;;;;;;;;;;;22.70;26.20;;;;;;5070418;28;19963;-70
2024/03/18 14:37:20;;;;;;;;;;;22.60;26.30;;;;;;5070321;28;20485;-76
2024/03/18 14:39:46;;;;;;;;;;;22.60;26.60;;;;;;5070352;28;20030;-74